createdAt,value
2018-07-09T00:00:10.546Z,20.67
2018-07-09T00:00:36.687Z,20.6
2018-07-09T00:01:02.901Z,20.63
2018-07-09T00:01:29.039Z,20.62
2018-07-09T00:01:55.180Z,20.44
2018-07-09T00:02:21.339Z,20.62
2018-07-09T00:02:47.498Z,20.5
2018-07-09T00:03:13.643Z,20.47
2018-07-09T00:03:39.774Z,20.5
2018-07-09T00:04:05.941Z,20.5
2018-07-09T00:04:32.080Z,20.51
2018-07-09T00:04:58.217Z,20.55
2018-07-09T00:05:24.409Z,20.47
2018-07-09T00:05:50.537Z,20.48
2018-07-09T00:06:19.726Z,20.41
2018-07-09T00:06:45.860Z,20.51
2018-07-09T00:07:12.013Z,20.43
2018-07-09T00:07:38.182Z,20.43
2018-07-09T00:08:04.321Z,20.4
2018-07-09T00:08:30.456Z,20.36
2018-07-09T00:08:56.598Z,20.44
2018-07-09T00:09:22.738Z,20.4
2018-07-09T00:09:48.882Z,20.43
2018-07-09T00:10:15.022Z,20.51
2018-07-09T00:10:41.189Z,20.47
2018-07-09T00:11:07.330Z,20.41
2018-07-09T00:11:33.490Z,20.47
2018-07-09T00:11:59.637Z,20.44
2018-07-09T00:12:25.778Z,20.52
2018-07-09T00:12:51.939Z,20.41
2018-07-09T00:13:18.086Z,20.31
2018-07-09T00:13:44.238Z,20.47
2018-07-09T00:14:10.404Z,20.44
2018-07-09T00:14:36.542Z,20.43
2018-07-09T00:15:02.685Z,20.44
2018-07-09T00:15:28.821Z,20.43
2018-07-09T00:15:54.958Z,20.43
2018-07-09T00:16:21.100Z,20.36
2018-07-09T00:16:47.265Z,20.43
2018-07-09T00:17:13.403Z,20.36
2018-07-09T00:17:39.561Z,20.25
2018-07-09T00:18:05.697Z,20.32
2018-07-09T00:18:31.842Z,20.28
2018-07-09T00:18:57.976Z,20.32
2018-07-09T00:19:24.169Z,20.31
2018-07-09T00:19:50.305Z,20.37
2018-07-09T00:20:16.445Z,20.26
2018-07-09T00:20:42.577Z,20.29
2018-07-09T00:21:08.719Z,20.34
2018-07-09T00:21:34.849Z,20.31
2018-07-09T00:22:01.009Z,20.31
2018-07-09T00:22:27.170Z,20.28
2018-07-09T00:22:53.312Z,20.26
2018-07-09T00:23:19.447Z,20.32
2018-07-09T00:23:45.612Z,20.24
2018-07-09T00:24:11.750Z,20.19
2018-07-09T00:24:37.876Z,20.18
2018-07-09T00:25:04.017Z,20.24
2018-07-09T00:25:30.175Z,20.24
2018-07-09T00:25:56.336Z,20.29
2018-07-09T00:26:22.472Z,20.25
2018-07-09T00:26:48.615Z,20.25
2018-07-09T00:27:14.753Z,20.19
2018-07-09T00:27:40.896Z,20.22
2018-07-09T00:28:07.029Z,20.16
2018-07-09T00:28:33.170Z,20.18
2018-07-09T00:28:59.314Z,20.21
2018-07-09T00:29:25.456Z,20.13
2018-07-09T00:29:51.586Z,20.14
2018-07-09T00:30:17.752Z,20.11
2018-07-09T00:30:43.899Z,20.14
2018-07-09T00:31:10.032Z,20.1
2018-07-09T00:31:36.162Z,20.07
2018-07-09T00:32:02.319Z,20.09
2018-07-09T00:32:28.472Z,20.09
2018-07-09T00:32:54.615Z,20
2018-07-09T00:33:20.749Z,20.03
2018-07-09T00:33:46.886Z,20.03
2018-07-09T00:34:13.021Z,20.04
2018-07-09T00:34:39.171Z,20.06
2018-07-09T00:35:05.322Z,20.04
2018-07-09T00:35:31.485Z,20.11
2018-07-09T00:35:57.632Z,20.13
2018-07-09T00:36:23.791Z,20.07
2018-07-09T00:36:49.978Z,20.03
2018-07-09T00:37:16.114Z,20.02
2018-07-09T00:37:42.254Z,20.02
2018-07-09T00:38:08.393Z,20
2018-07-09T00:38:34.534Z,19.92
2018-07-09T00:39:00.671Z,20.02
2018-07-09T00:39:26.805Z,20.04
2018-07-09T00:39:52.951Z,20
2018-07-09T00:40:19.085Z,19.96
2018-07-09T00:40:45.278Z,20.04
2018-07-09T00:41:11.411Z,19.92
2018-07-09T00:41:37.555Z,20
2018-07-09T00:42:03.687Z,19.96
2018-07-09T00:42:29.825Z,19.95
2018-07-09T00:42:55.963Z,20.02
2018-07-09T00:43:22.107Z,19.89
2018-07-09T00:43:48.274Z,19.92
2018-07-09T00:44:14.410Z,19.94
2018-07-09T00:44:40.580Z,19.95
2018-07-09T00:45:06.745Z,19.86
2018-07-09T00:45:32.883Z,19.81
2018-07-09T00:45:59.020Z,19.81
2018-07-09T00:46:25.158Z,19.84
2018-07-09T00:46:51.319Z,19.76
2018-07-09T00:47:17.485Z,19.74
2018-07-09T00:47:43.622Z,19.73
2018-07-09T00:48:09.783Z,19.79
2018-07-09T00:48:35.921Z,19.77
2018-07-09T00:49:02.069Z,19.66
2018-07-09T00:49:28.192Z,19.73
2018-07-09T00:49:54.332Z,19.71
2018-07-09T00:50:20.470Z,19.69
2018-07-09T00:50:46.606Z,19.69
2018-07-09T00:51:12.769Z,19.67
2018-07-09T00:51:38.932Z,19.7
2018-07-09T00:52:05.067Z,19.66
2018-07-09T00:52:31.205Z,19.67
2018-07-09T00:52:57.341Z,19.63
2018-07-09T00:53:23.473Z,19.71
2018-07-09T00:53:49.612Z,19.66
2018-07-09T00:54:15.760Z,19.64
2018-07-09T00:54:41.935Z,19.7
2018-07-09T00:55:08.073Z,19.7
2018-07-09T00:55:34.232Z,19.64
2018-07-09T00:56:00.365Z,19.63
2018-07-09T00:56:26.529Z,19.63
2018-07-09T00:56:52.668Z,19.64
2018-07-09T00:57:18.836Z,19.64
2018-07-09T00:57:45.002Z,19.58
2018-07-09T00:58:11.194Z,19.63
2018-07-09T00:58:37.300Z,19.56
2018-07-09T00:59:03.435Z,19.58
2018-07-09T00:59:29.562Z,19.56
2018-07-09T00:59:55.755Z,19.54
2018-07-09T01:00:21.889Z,19.49
2018-07-09T01:00:48.024Z,19.49
2018-07-09T01:01:14.156Z,19.51
2018-07-09T01:01:40.296Z,19.51
2018-07-09T01:02:06.436Z,19.51
2018-07-09T01:02:32.575Z,19.44
2018-07-09T01:02:58.760Z,19.48
2018-07-09T01:03:24.894Z,19.47
2018-07-09T01:03:51.036Z,19.47
2018-07-09T01:04:17.174Z,19.49
2018-07-09T01:04:43.311Z,19.39
2018-07-09T01:05:09.448Z,19.54
2018-07-09T01:05:35.613Z,19.48
2018-07-09T01:06:01.750Z,19.49
2018-07-09T01:06:27.887Z,19.48
2018-07-09T01:06:54.022Z,19.49
2018-07-09T01:07:20.182Z,19.51
2018-07-09T01:07:46.317Z,19.44
2018-07-09T01:08:12.459Z,19.39
2018-07-09T01:08:38.619Z,19.48
2018-07-09T01:09:04.784Z,19.44
2018-07-09T01:09:30.920Z,19.44
2018-07-09T01:09:57.078Z,19.49
2018-07-09T01:10:23.221Z,19.47
2018-07-09T01:10:49.352Z,19.48
2018-07-09T01:11:15.499Z,19.52
2018-07-09T01:11:41.652Z,19.45
2018-07-09T01:12:07.798Z,19.47
2018-07-09T01:12:33.928Z,19.51
2018-07-09T01:13:00.072Z,19.48
2018-07-09T01:13:26.254Z,19.51
2018-07-09T01:13:52.389Z,19.49
2018-07-09T01:14:18.525Z,19.45
2018-07-09T01:14:44.669Z,19.41
2018-07-09T01:15:10.805Z,19.4
2018-07-09T01:15:36.948Z,19.44
2018-07-09T01:16:03.124Z,19.4
2018-07-09T01:16:29.260Z,19.39
2018-07-09T01:16:55.395Z,19.45
2018-07-09T01:17:21.526Z,19.31
2018-07-09T01:17:47.665Z,19.31
2018-07-09T01:18:13.804Z,19.4
2018-07-09T01:18:39.950Z,19.47
2018-07-09T01:19:06.088Z,19.29
2018-07-09T01:19:32.221Z,19.3
2018-07-09T01:19:58.389Z,19.27
2018-07-09T01:20:24.543Z,19.31
2018-07-09T01:20:50.712Z,19.36
2018-07-09T01:21:16.839Z,19.3
2018-07-09T01:21:42.976Z,19.29
2018-07-09T01:22:09.117Z,19.34
2018-07-09T01:22:35.255Z,19.44
2018-07-09T01:23:01.409Z,19.33
2018-07-09T01:23:27.555Z,19.4
2018-07-09T01:23:53.686Z,19.4
2018-07-09T01:24:19.821Z,19.36
2018-07-09T01:24:45.958Z,19.3
2018-07-09T01:25:12.097Z,19.3
2018-07-09T01:25:38.233Z,19.31
2018-07-09T01:26:04.392Z,19.29
2018-07-09T01:26:30.534Z,19.29
2018-07-09T01:26:56.667Z,19.22
2018-07-09T01:27:22.823Z,19.31
2018-07-09T01:27:48.962Z,19.27
2018-07-09T01:28:15.097Z,19.24
2018-07-09T01:28:41.239Z,19.26
2018-07-09T01:29:07.400Z,19.29
2018-07-09T01:29:33.532Z,19.14
2018-07-09T01:29:59.673Z,19.21
2018-07-09T01:30:25.811Z,19.29
2018-07-09T01:30:51.947Z,19.14
2018-07-09T01:31:18.089Z,19.27
2018-07-09T01:31:44.220Z,19.21
2018-07-09T01:32:10.364Z,19.22
2018-07-09T01:32:36.518Z,19.11
2018-07-09T01:33:02.661Z,19.12
2018-07-09T01:33:28.801Z,19.15
2018-07-09T01:33:54.936Z,19.26
2018-07-09T01:34:21.073Z,19.22
2018-07-09T01:34:47.208Z,19.22
2018-07-09T01:35:13.346Z,19.24
2018-07-09T01:35:39.485Z,19.24
2018-07-09T01:36:05.619Z,19.22
2018-07-09T01:36:31.761Z,19.24
2018-07-09T01:36:57.895Z,19.29
2018-07-09T01:37:24.029Z,19.11
2018-07-09T01:37:50.160Z,19.14
2018-07-09T01:38:16.294Z,19.09
2018-07-09T01:38:42.438Z,19.16
2018-07-09T01:39:08.591Z,19.14
2018-07-09T01:39:34.726Z,19.11
2018-07-09T01:40:00.861Z,19.18
2018-07-09T01:40:27.028Z,19.11
2018-07-09T01:40:53.162Z,19.08
2018-07-09T01:41:19.322Z,19.09
2018-07-09T01:41:45.459Z,19.09
2018-07-09T01:42:11.599Z,19.11
2018-07-09T01:42:37.731Z,19.04
2018-07-09T01:43:03.868Z,19.08
2018-07-09T01:43:30.012Z,19.04
2018-07-09T01:43:56.149Z,19.04
2018-07-09T01:44:22.294Z,19.14
2018-07-09T01:44:48.433Z,19.08
2018-07-09T01:45:14.572Z,19.14
2018-07-09T01:45:40.714Z,19.14
2018-07-09T01:46:06.873Z,19.12
2018-07-09T01:46:33.016Z,18.98
2018-07-09T01:46:59.176Z,19.11
2018-07-09T01:47:25.344Z,19.08
2018-07-09T01:47:51.505Z,19.07
2018-07-09T01:48:17.637Z,19.15
2018-07-09T01:48:43.778Z,19.09
2018-07-09T01:49:09.945Z,19.09
2018-07-09T01:49:36.085Z,19.12
2018-07-09T01:50:02.261Z,19.09
2018-07-09T01:50:28.397Z,19.08
2018-07-09T01:50:54.540Z,18.96
2018-07-09T01:51:20.696Z,19.02
2018-07-09T01:51:46.827Z,19.08
2018-07-09T01:52:12.990Z,18.96
2018-07-09T01:52:39.126Z,19.07
2018-07-09T01:53:05.293Z,19.08
2018-07-09T01:53:31.435Z,18.98
2018-07-09T01:53:57.573Z,18.98
2018-07-09T01:54:23.711Z,19
2018-07-09T01:54:49.876Z,18.9
2018-07-09T01:55:16.011Z,18.96
2018-07-09T01:55:42.149Z,18.95
2018-07-09T01:56:08.286Z,18.99
2018-07-09T01:56:34.428Z,18.99
2018-07-09T01:57:00.589Z,18.89
2018-07-09T01:57:26.730Z,18.9
2018-07-09T01:57:52.864Z,19
2018-07-09T01:58:19.009Z,18.99
2018-07-09T01:58:45.172Z,19
2018-07-09T01:59:11.310Z,19.07
2018-07-09T01:59:37.450Z,19.04
2018-07-09T02:00:03.603Z,19.04
2018-07-09T02:00:29.747Z,18.98
2018-07-09T02:00:55.908Z,18.98
2018-07-09T02:01:22.101Z,18.96
2018-07-09T02:01:48.228Z,19.04
2018-07-09T02:02:14.371Z,18.99
2018-07-09T02:02:40.531Z,18.9
2018-07-09T02:03:06.677Z,18.95
2018-07-09T02:03:32.814Z,18.86
2018-07-09T02:03:58.944Z,18.83
2018-07-09T02:04:25.092Z,18.9
2018-07-09T02:04:51.225Z,18.92
2018-07-09T02:05:17.387Z,18.84
2018-07-09T02:05:43.550Z,18.93
2018-07-09T02:06:09.706Z,18.89
2018-07-09T02:06:35.840Z,18.88
2018-07-09T02:07:01.990Z,18.9
2018-07-09T02:07:28.121Z,18.93
2018-07-09T02:07:54.261Z,18.95
2018-07-09T02:08:20.426Z,18.92
2018-07-09T02:08:46.561Z,18.9
2018-07-09T02:09:12.690Z,18.81
2018-07-09T02:09:38.830Z,18.88
2018-07-09T02:10:04.966Z,18.81
2018-07-09T02:10:31.104Z,18.92
2018-07-09T02:10:57.240Z,18.83
2018-07-09T02:11:23.416Z,18.84
2018-07-09T02:11:49.574Z,18.83
2018-07-09T02:12:15.732Z,18.88
2018-07-09T02:12:41.865Z,18.86
2018-07-09T02:13:08.030Z,18.83
2018-07-09T02:13:34.164Z,18.86
2018-07-09T02:14:00.329Z,18.86
2018-07-09T02:14:26.468Z,18.75
2018-07-09T02:14:52.609Z,18.78
2018-07-09T02:15:18.749Z,18.75
2018-07-09T02:15:44.889Z,18.84
2018-07-09T02:16:11.030Z,18.83
2018-07-09T02:16:37.192Z,18.78
2018-07-09T02:17:03.348Z,18.83
2018-07-09T02:17:29.517Z,18.78
2018-07-09T02:17:55.658Z,18.8
2018-07-09T02:18:21.792Z,18.78
2018-07-09T02:18:47.955Z,18.78
2018-07-09T02:19:14.095Z,18.81
2018-07-09T02:19:40.234Z,18.83
2018-07-09T02:20:06.393Z,18.81
2018-07-09T02:20:32.598Z,18.78
2018-07-09T02:20:58.665Z,18.83
2018-07-09T02:21:24.798Z,18.81
2018-07-09T02:21:50.962Z,18.74
2018-07-09T02:22:17.093Z,18.81
2018-07-09T02:22:43.279Z,18.74
2018-07-09T02:23:09.415Z,18.75
2018-07-09T02:23:35.559Z,18.75
2018-07-09T02:24:01.700Z,18.8
2018-07-09T02:24:27.835Z,18.7
2018-07-09T02:24:53.972Z,18.66
2018-07-09T02:25:20.141Z,18.58
2018-07-09T02:25:46.278Z,18.63
2018-07-09T02:26:12.422Z,18.65
2018-07-09T02:26:38.560Z,18.58
2018-07-09T02:27:04.699Z,18.63
2018-07-09T02:27:30.855Z,18.65
2018-07-09T02:27:56.993Z,18.65
2018-07-09T02:28:23.127Z,18.65
2018-07-09T02:28:49.268Z,18.58
2018-07-09T02:29:15.401Z,18.68
2018-07-09T02:29:41.544Z,18.63
2018-07-09T02:30:07.700Z,18.63
2018-07-09T02:30:33.831Z,18.66
2018-07-09T02:30:59.994Z,18.63
2018-07-09T02:31:26.136Z,18.65
2018-07-09T02:31:52.272Z,18.65
2018-07-09T02:32:18.440Z,18.63
2018-07-09T02:32:44.581Z,18.53
2018-07-09T02:33:10.740Z,18.6
2018-07-09T02:33:36.873Z,18.59
2018-07-09T02:34:03.015Z,18.59
2018-07-09T02:34:29.162Z,18.55
2018-07-09T02:34:55.334Z,18.5
2018-07-09T02:35:21.469Z,18.55
2018-07-09T02:35:47.607Z,18.53
2018-07-09T02:36:13.746Z,18.53
2018-07-09T02:36:39.924Z,18.55
2018-07-09T02:37:06.076Z,18.62
2018-07-09T02:37:32.253Z,18.59
2018-07-09T02:37:58.388Z,18.52
2018-07-09T02:38:24.554Z,18.52
2018-07-09T02:38:50.697Z,18.49
2018-07-09T02:39:16.859Z,18.52
2018-07-09T02:39:43.020Z,18.58
2018-07-09T02:40:09.180Z,18.56
2018-07-09T02:40:35.371Z,18.56
2018-07-09T02:41:01.534Z,18.53
2018-07-09T02:41:27.741Z,18.62
2018-07-09T02:41:53.881Z,18.52
2018-07-09T02:42:20.016Z,18.53
2018-07-09T02:42:46.150Z,18.53
2018-07-09T02:43:12.329Z,18.53
2018-07-09T02:43:38.490Z,18.52
2018-07-09T02:44:04.705Z,18.53
2018-07-09T02:44:30.843Z,18.45
2018-07-09T02:44:56.977Z,18.49
2018-07-09T02:45:23.115Z,18.53
2018-07-09T02:45:49.255Z,18.55
2018-07-09T02:46:15.394Z,18.55
2018-07-09T02:46:41.583Z,18.53
2018-07-09T02:47:07.739Z,18.5
2018-07-09T02:47:33.909Z,18.45
2018-07-09T02:48:00.092Z,18.43
2018-07-09T02:48:26.257Z,18.4
2018-07-09T02:48:52.420Z,18.34
2018-07-09T02:49:18.651Z,18.37
2018-07-09T02:49:44.701Z,18.33
2018-07-09T02:50:10.841Z,18.4
2018-07-09T02:50:36.980Z,18.4
2018-07-09T02:51:03.119Z,18.34
2018-07-09T02:51:29.255Z,18.31
2018-07-09T02:51:55.434Z,18.4
2018-07-09T02:52:21.601Z,18.37
2018-07-09T02:52:47.785Z,18.41
2018-07-09T02:53:13.945Z,18.34
2018-07-09T02:53:40.121Z,18.29
2018-07-09T02:54:06.258Z,18.41
2018-07-09T02:54:32.391Z,18.34
2018-07-09T02:54:58.530Z,18.4
2018-07-09T02:55:24.703Z,18.33
2018-07-09T02:55:50.836Z,18.31
2018-07-09T02:56:16.996Z,18.37
2018-07-09T02:56:43.187Z,18.31
2018-07-09T02:57:09.351Z,18.34
2018-07-09T02:57:35.514Z,18.33
2018-07-09T02:58:01.689Z,18.29
2018-07-09T02:58:27.821Z,18.28
2018-07-09T02:58:54.010Z,18.28
2018-07-09T02:59:20.162Z,18.28
2018-07-09T02:59:46.322Z,18.31
2018-07-09T03:00:12.487Z,18.28
2018-07-09T03:00:38.634Z,18.4
2018-07-09T03:01:05.068Z,18.23
2018-07-09T03:01:30.942Z,18.25
2018-07-09T03:01:57.109Z,18.23
2018-07-09T03:02:23.246Z,18.28
2018-07-09T03:02:49.379Z,18.25
2018-07-09T03:03:15.517Z,18.28
2018-07-09T03:03:41.655Z,18.33
2018-07-09T03:04:07.820Z,18.2
2018-07-09T03:04:33.953Z,18.2
2018-07-09T03:05:00.100Z,18.25
2018-07-09T03:05:26.263Z,18.19
2018-07-09T03:05:52.394Z,18.19
2018-07-09T03:06:18.634Z,18.22
2018-07-09T03:06:44.770Z,18.23
2018-07-09T03:07:11.076Z,18.29
2018-07-09T03:07:37.481Z,18.22
2018-07-09T03:08:03.613Z,18.26
2018-07-09T03:08:29.904Z,18.25
2018-07-09T03:08:56.078Z,18.28
2018-07-09T03:09:22.243Z,18.28
2018-07-09T03:09:48.450Z,18.28
2018-07-09T03:10:14.659Z,18.29
2018-07-09T03:10:40.898Z,18.23
2018-07-09T03:11:07.298Z,18.25
2018-07-09T03:11:33.537Z,18.25
2018-07-09T03:11:59.818Z,18.31
2018-07-09T03:12:26.085Z,18.22
2018-07-09T03:12:52.231Z,18.23
2018-07-09T03:13:18.392Z,18.19
2018-07-09T03:13:44.533Z,18.26
2018-07-09T03:14:10.697Z,18.23
2018-07-09T03:14:36.854Z,18.2
2018-07-09T03:15:02.996Z,18.2
2018-07-09T03:15:29.183Z,18.19
2018-07-09T03:15:55.342Z,18.19
2018-07-09T03:16:21.502Z,18.23
2018-07-09T03:16:47.683Z,18.26
2018-07-09T03:17:13.830Z,18.13
2018-07-09T03:17:39.984Z,18.04
2018-07-09T03:18:06.124Z,18.22
2018-07-09T03:18:32.277Z,18.07
2018-07-09T03:18:58.482Z,18.07
2018-07-09T03:19:24.541Z,18.08
2018-07-09T03:19:50.706Z,18.18
2018-07-09T03:20:16.895Z,18.25
2018-07-09T03:20:43.050Z,18.07
2018-07-09T03:21:09.186Z,18.15
2018-07-09T03:21:35.360Z,18.2
2018-07-09T03:22:01.498Z,18.11
2018-07-09T03:22:27.632Z,18.11
2018-07-09T03:22:53.796Z,18.08
2018-07-09T03:23:19.978Z,18.18
2018-07-09T03:23:46.136Z,18.1
2018-07-09T03:24:12.314Z,18.2
2018-07-09T03:24:38.511Z,18.07
2018-07-09T03:25:04.664Z,18.1
2018-07-09T03:25:30.828Z,18.25
2018-07-09T03:25:56.975Z,18.26
2018-07-09T03:26:23.135Z,18.23
2018-07-09T03:26:49.268Z,18.16
2018-07-09T03:27:15.431Z,18.2
2018-07-09T03:27:41.582Z,18.16
2018-07-09T03:28:07.708Z,18.18
2018-07-09T03:28:33.871Z,18.15
2018-07-09T03:29:00.037Z,18.13
2018-07-09T03:29:26.174Z,18.13
2018-07-09T03:29:52.351Z,18.19
2018-07-09T03:30:18.488Z,18.18
2018-07-09T03:30:44.650Z,18.15
2018-07-09T03:31:10.785Z,18.16
2018-07-09T03:31:36.977Z,18.1
2018-07-09T03:32:03.178Z,18.13
2018-07-09T03:32:29.339Z,18.16
2018-07-09T03:32:55.473Z,18.11
2018-07-09T03:33:21.614Z,18.18
2018-07-09T03:33:47.750Z,18.07
2018-07-09T03:34:13.895Z,18.07
2018-07-09T03:34:40.048Z,18.08
2018-07-09T03:35:06.207Z,18.03
2018-07-09T03:35:32.344Z,18
2018-07-09T03:35:58.485Z,18
2018-07-09T03:36:24.643Z,17.98
2018-07-09T03:36:50.801Z,17.95
2018-07-09T03:37:16.940Z,17.95
2018-07-09T03:37:43.105Z,17.98
2018-07-09T03:38:09.241Z,17.97
2018-07-09T03:38:35.406Z,18.03
2018-07-09T03:39:01.545Z,17.94
2018-07-09T03:39:27.702Z,17.86
2018-07-09T03:39:53.842Z,17.86
2018-07-09T03:40:20.007Z,17.89
2018-07-09T03:40:46.166Z,17.87
2018-07-09T03:41:12.323Z,17.89
2018-07-09T03:41:38.483Z,17.83
2018-07-09T03:42:04.632Z,17.86
2018-07-09T03:42:30.773Z,17.92
2018-07-09T03:42:56.932Z,17.92
2018-07-09T03:43:23.089Z,17.94
2018-07-09T03:43:49.245Z,17.97
2018-07-09T03:44:15.386Z,17.94
2018-07-09T03:44:41.524Z,17.98
2018-07-09T03:45:07.680Z,17.95
2018-07-09T03:45:33.851Z,17.9
2018-07-09T03:45:59.981Z,17.95
2018-07-09T03:46:26.122Z,17.92
2018-07-09T03:46:52.288Z,17.98
2018-07-09T03:47:18.427Z,17.97
2018-07-09T03:47:44.571Z,18
2018-07-09T03:48:10.709Z,17.97
2018-07-09T03:48:36.874Z,18.07
2018-07-09T03:49:03.033Z,17.97
2018-07-09T03:49:29.175Z,17.92
2018-07-09T03:49:55.309Z,18.05
2018-07-09T03:50:21.456Z,18.01
2018-07-09T03:50:47.591Z,17.97
2018-07-09T03:51:13.727Z,17.95
2018-07-09T03:51:39.864Z,17.98
2018-07-09T03:52:06.015Z,17.97
2018-07-09T03:52:32.159Z,18
2018-07-09T03:52:58.324Z,18.03
2018-07-09T03:53:24.466Z,18.03
2018-07-09T03:53:50.635Z,18.07
2018-07-09T03:54:16.767Z,18.04
2018-07-09T03:54:42.906Z,17.95
2018-07-09T03:55:09.071Z,18.05
2018-07-09T03:55:35.203Z,18.05
2018-07-09T03:56:01.353Z,18.15
2018-07-09T03:56:27.484Z,18.11
2018-07-09T03:56:53.628Z,18.15
2018-07-09T03:57:19.761Z,18.15
2018-07-09T03:57:45.901Z,18.16
2018-07-09T03:58:12.040Z,18.19
2018-07-09T03:58:38.200Z,18.13
2018-07-09T03:59:04.358Z,18.08
2018-07-09T03:59:30.523Z,18.13
2018-07-09T03:59:56.667Z,18.18
2018-07-09T04:00:22.833Z,18.13
2018-07-09T04:00:48.966Z,18.13
2018-07-09T04:01:15.104Z,18.15
2018-07-09T04:01:41.247Z,18.11
2018-07-09T04:02:07.409Z,18.07
2018-07-09T04:02:33.546Z,18.04
2018-07-09T04:02:59.679Z,18.18
2018-07-09T04:03:25.814Z,18.18
2018-07-09T04:03:51.949Z,18.13
2018-07-09T04:04:18.107Z,18.11
2018-07-09T04:04:44.279Z,18.07
2018-07-09T04:05:10.411Z,18.16
2018-07-09T04:05:36.558Z,18.22
2018-07-09T04:06:02.690Z,18.13
2018-07-09T04:06:28.828Z,18.2
2018-07-09T04:06:54.962Z,18.13
2018-07-09T04:07:21.100Z,18.08
2018-07-09T04:07:47.289Z,18.19
2018-07-09T04:08:13.425Z,18.16
2018-07-09T04:08:39.559Z,18.2
2018-07-09T04:09:05.700Z,18.18
2018-07-09T04:09:31.858Z,18.19
2018-07-09T04:09:58.002Z,18.19
2018-07-09T04:10:24.143Z,18.22
2018-07-09T04:10:50.276Z,18.26
2018-07-09T04:11:16.415Z,18.13
2018-07-09T04:11:42.629Z,18.16
2018-07-09T04:12:08.767Z,18.15
2018-07-09T04:12:34.910Z,18.11
2018-07-09T04:13:01.045Z,18.15
2018-07-09T04:13:27.206Z,18.16
2018-07-09T04:13:53.342Z,18.19
2018-07-09T04:14:19.492Z,18.08
2018-07-09T04:14:45.716Z,18.2
2018-07-09T04:15:11.834Z,18.22
2018-07-09T04:15:37.973Z,18.11
2018-07-09T04:16:04.113Z,18.15
2018-07-09T04:16:30.246Z,18.22
2018-07-09T04:16:56.388Z,18.18
2018-07-09T04:17:22.542Z,18.26
2018-07-09T04:17:48.682Z,18.23
2018-07-09T04:18:14.822Z,18.25
2018-07-09T04:18:40.960Z,18.25
2018-07-09T04:19:07.098Z,18.31
2018-07-09T04:19:33.264Z,18.28
2018-07-09T04:19:59.420Z,18.28
2018-07-09T04:20:25.612Z,18.29
2018-07-09T04:20:51.806Z,18.26
2018-07-09T04:21:17.936Z,18.22
2018-07-09T04:21:44.076Z,18.26
2018-07-09T04:22:10.211Z,18.2
2018-07-09T04:22:36.343Z,18.2
2018-07-09T04:23:02.480Z,18.29
2018-07-09T04:23:28.637Z,18.28
2018-07-09T04:23:54.774Z,18.26
2018-07-09T04:24:20.943Z,18.28
2018-07-09T04:24:47.079Z,18.25
2018-07-09T04:25:13.222Z,18.26
2018-07-09T04:25:39.365Z,18.25
2018-07-09T04:26:05.554Z,18.25
2018-07-09T04:26:31.745Z,18.28
2018-07-09T04:26:57.880Z,18.31
2018-07-09T04:27:24.029Z,18.31
2018-07-09T04:27:50.185Z,18.28
2018-07-09T04:28:16.345Z,18.38
2018-07-09T04:28:42.486Z,18.35
2018-07-09T04:29:08.623Z,18.37
2018-07-09T04:29:34.760Z,18.33
2018-07-09T04:30:00.896Z,18.38
2018-07-09T04:30:27.038Z,18.37
2018-07-09T04:30:53.203Z,18.37
2018-07-09T04:31:19.341Z,18.31
2018-07-09T04:31:45.519Z,18.41
2018-07-09T04:32:11.664Z,18.34
2018-07-09T04:32:37.824Z,18.4
2018-07-09T04:33:03.964Z,18.41
2018-07-09T04:33:30.105Z,18.37
2018-07-09T04:33:56.265Z,18.29
2018-07-09T04:34:22.422Z,18.4
2018-07-09T04:34:48.564Z,18.35
2018-07-09T04:35:14.705Z,18.38
2018-07-09T04:35:40.844Z,18.4
2018-07-09T04:36:06.992Z,18.43
2018-07-09T04:36:33.142Z,18.38
2018-07-09T04:36:59.329Z,18.38
2018-07-09T04:37:25.459Z,18.41
2018-07-09T04:37:51.648Z,18.41
2018-07-09T04:38:17.735Z,18.45
2018-07-09T04:38:43.877Z,18.49
2018-07-09T04:39:10.022Z,18.44
2018-07-09T04:39:36.164Z,18.49
2018-07-09T04:40:02.296Z,18.52
2018-07-09T04:40:28.434Z,18.41
2018-07-09T04:40:54.572Z,18.49
2018-07-09T04:41:20.740Z,18.49
2018-07-09T04:41:46.890Z,18.53
2018-07-09T04:42:13.030Z,18.5
2018-07-09T04:42:39.175Z,18.58
2018-07-09T04:43:05.312Z,18.55
2018-07-09T04:43:31.468Z,18.63
2018-07-09T04:43:57.605Z,18.62
2018-07-09T04:44:23.773Z,18.6
2018-07-09T04:44:49.907Z,18.6
2018-07-09T04:45:16.040Z,18.63
2018-07-09T04:45:42.206Z,18.58
2018-07-09T04:46:08.353Z,18.73
2018-07-09T04:46:34.489Z,18.75
2018-07-09T04:47:00.624Z,18.65
2018-07-09T04:47:26.801Z,18.75
2018-07-09T04:47:52.959Z,18.83
2018-07-09T04:48:19.096Z,18.81
2018-07-09T04:48:45.226Z,18.89
2018-07-09T04:49:11.371Z,19.11
2018-07-09T04:49:37.506Z,19.33
2018-07-09T04:50:03.673Z,19.62
2018-07-09T04:50:29.811Z,19.92
2018-07-09T04:50:55.948Z,20.21
2018-07-09T04:51:22.083Z,20.48
2018-07-09T04:51:48.220Z,20.8
2018-07-09T04:52:14.365Z,21.07
2018-07-09T04:52:40.522Z,21.35
2018-07-09T04:53:06.659Z,21.72
2018-07-09T04:53:32.899Z,21.98
2018-07-09T04:53:59.024Z,22.18
2018-07-09T04:54:25.154Z,22.43
2018-07-09T04:54:51.295Z,22.55
2018-07-09T04:55:17.463Z,22.85
2018-07-09T04:55:43.653Z,23.05
2018-07-09T04:56:09.807Z,23.24
2018-07-09T04:56:35.945Z,23.56
2018-07-09T04:57:02.085Z,23.68
2018-07-09T04:57:28.245Z,23.84
2018-07-09T04:57:54.381Z,23.95
2018-07-09T04:58:20.528Z,24.17
2018-07-09T04:58:46.663Z,24.35
2018-07-09T04:59:12.804Z,24.48
2018-07-09T04:59:38.942Z,24.73
2018-07-09T05:00:05.080Z,24.88
2018-07-09T05:00:31.219Z,25.08
2018-07-09T05:00:57.359Z,25.17
2018-07-09T05:01:23.496Z,25.38
2018-07-09T05:01:49.634Z,25.44
2018-07-09T05:02:15.796Z,25.65
2018-07-09T05:02:41.937Z,25.65
2018-07-09T05:03:08.075Z,25.9
2018-07-09T05:03:34.235Z,26.03
2018-07-09T05:04:00.373Z,26.06
2018-07-09T05:04:26.513Z,26.26
2018-07-09T05:04:52.681Z,26.31
2018-07-09T05:05:18.841Z,26.38
2018-07-09T05:05:45.067Z,26.52
2018-07-09T05:06:11.174Z,26.68
2018-07-09T05:06:37.313Z,26.62
2018-07-09T05:07:03.446Z,26.63
2018-07-09T05:07:29.591Z,26.74
2018-07-09T05:07:55.717Z,26.84
2018-07-09T05:08:21.856Z,26.84
2018-07-09T05:08:47.991Z,26.83
2018-07-09T05:09:14.132Z,26.74
2018-07-09T05:09:40.298Z,26.73
2018-07-09T05:10:06.440Z,26.73
2018-07-09T05:10:32.602Z,26.7
2018-07-09T05:10:58.732Z,26.77
2018-07-09T05:11:24.868Z,26.71
2018-07-09T05:11:51.007Z,26.65
2018-07-09T05:12:17.153Z,26.55
2018-07-09T05:12:43.319Z,26.47
2018-07-09T05:13:09.515Z,26.43
2018-07-09T05:13:35.676Z,26.19
2018-07-09T05:14:01.813Z,26.06
2018-07-09T05:14:27.953Z,26.02
2018-07-09T05:14:54.098Z,25.85
2018-07-09T05:15:20.228Z,25.8
2018-07-09T05:15:46.365Z,25.72
2018-07-09T05:16:12.502Z,25.7
2018-07-09T05:16:38.648Z,25.54
2018-07-09T05:17:04.786Z,25.53
2018-07-09T05:17:30.925Z,25.26
2018-07-09T05:17:57.056Z,25.21
2018-07-09T05:18:23.219Z,25.17
2018-07-09T05:18:49.364Z,25.07
2018-07-09T05:19:15.497Z,24.91
2018-07-09T05:19:41.639Z,24.86
2018-07-09T05:20:07.804Z,24.74
2018-07-09T05:20:33.998Z,24.65
2018-07-09T05:21:00.088Z,24.57
2018-07-09T05:21:26.227Z,24.51
2018-07-09T05:21:52.356Z,24.43
2018-07-09T05:22:18.500Z,24.32
2018-07-09T05:22:44.639Z,24.1
2018-07-09T05:23:10.774Z,24.11
2018-07-09T05:23:36.917Z,23.87
2018-07-09T05:24:03.081Z,23.87
2018-07-09T05:24:29.226Z,23.78
2018-07-09T05:24:55.365Z,23.65
2018-07-09T05:25:21.504Z,23.48
2018-07-09T05:25:47.637Z,23.32
2018-07-09T05:26:13.802Z,23.2
2018-07-09T05:26:39.940Z,23.12
2018-07-09T05:27:06.086Z,22.96
2018-07-09T05:27:32.219Z,22.94
2018-07-09T05:27:58.361Z,22.94
2018-07-09T05:28:24.522Z,22.87
2018-07-09T05:28:50.668Z,22.75
2018-07-09T05:29:16.802Z,22.7
2018-07-09T05:29:42.933Z,22.66
2018-07-09T05:30:09.074Z,22.6
2018-07-09T05:30:35.212Z,22.53
2018-07-09T05:31:01.352Z,22.5
2018-07-09T05:31:27.497Z,22.51
2018-07-09T05:31:53.627Z,22.43
2018-07-09T05:32:19.767Z,22.5
2018-07-09T05:32:45.907Z,22.47
2018-07-09T05:33:12.111Z,22.44
2018-07-09T05:33:38.237Z,22.45
2018-07-09T05:34:04.394Z,22.38
2018-07-09T05:34:30.540Z,22.38
2018-07-09T05:34:56.700Z,22.33
2018-07-09T05:35:22.835Z,22.38
2018-07-09T05:35:49.026Z,22.44
2018-07-09T05:36:15.177Z,22.39
2018-07-09T05:36:41.317Z,22.43
2018-07-09T05:37:07.479Z,22.39
2018-07-09T05:37:33.625Z,22.35
2018-07-09T05:37:59.777Z,22.3
2018-07-09T05:38:25.913Z,22.26